createdAt,value
2022-07-28T00:01:29.380Z,25.44
2022-07-28T00:03:31.286Z,25.41
2022-07-28T00:05:33.230Z,25.37
2022-07-28T00:07:36.308Z,25.26
2022-07-28T00:09:38.567Z,25.21
2022-07-28T00:11:50.429Z,25.20
2022-07-28T00:13:56.653Z,25.16
2022-07-28T00:15:58.885Z,25.08
2022-07-28T00:18:01.132Z,25.05
2022-07-28T00:20:05.113Z,25.00
2022-07-28T00:22:07.535Z,24.94
2022-07-28T00:24:09.735Z,24.92
2022-07-28T00:26:12.588Z,24.87
2022-07-28T00:28:14.416Z,24.84
2022-07-28T00:30:16.196Z,24.81
2022-07-28T00:32:21.665Z,24.73
2022-07-28T00:34:26.580Z,24.73
2022-07-28T00:36:29.074Z,24.69
2022-07-28T00:38:30.943Z,24.68
2022-07-28T00:40:51.411Z,24.57
2022-07-28T00:42:53.088Z,24.50
2022-07-28T00:44:55.043Z,24.46
2022-07-28T00:46:56.808Z,24.37
2022-07-28T00:48:59.276Z,24.33
2022-07-28T00:51:01.216Z,24.23
2022-07-28T00:53:03.126Z,24.22
2022-07-28T00:55:07.124Z,24.21
2022-07-28T00:57:09.457Z,24.22
2022-07-28T00:59:11.400Z,24.22
2022-07-28T01:01:19.922Z,24.20
2022-07-28T01:03:22.990Z,24.12
2022-07-28T01:05:43.906Z,23.95
2022-07-28T01:07:55.460Z,23.83
2022-07-28T01:10:13.881Z,23.51
2022-07-28T01:12:34.891Z,23.48
2022-07-28T01:14:44.854Z,23.49
2022-07-28T01:16:56.870Z,23.54
2022-07-28T01:19:10.221Z,23.63
2022-07-28T01:21:15.836Z,23.78
2022-07-28T01:23:32.822Z,23.81
2022-07-28T01:25:49.936Z,23.82
2022-07-28T01:27:59.210Z,23.83
2022-07-28T01:30:29.630Z,23.77
2022-07-28T01:32:39.520Z,23.83
2022-07-28T01:34:49.562Z,23.84
2022-07-28T01:36:59.716Z,23.82
2022-07-28T01:39:02.437Z,23.84
2022-07-28T01:41:07.714Z,23.83
2022-07-28T01:43:14.438Z,23.78
2022-07-28T01:45:19.147Z,23.79
2022-07-28T01:47:22.434Z,23.75
2022-07-28T01:49:26.622Z,23.67
2022-07-28T01:51:30.558Z,23.65
2022-07-28T01:53:37.742Z,23.65
2022-07-28T01:55:43.366Z,23.63
2022-07-28T01:57:47.522Z,23.62
2022-07-28T01:59:51.194Z,23.60
2022-07-28T02:01:54.739Z,23.56
2022-07-28T02:04:00.378Z,23.52
2022-07-28T02:06:04.877Z,23.50
2022-07-28T02:08:07.862Z,23.49
2022-07-28T02:10:12.709Z,23.43
2022-07-28T02:12:18.554Z,23.43
2022-07-28T02:14:23.260Z,23.36
2022-07-28T02:16:27.622Z,23.34
2022-07-28T02:18:31.371Z,23.31
2022-07-28T02:20:33.985Z,23.21
2022-07-28T02:22:37.959Z,23.22
2022-07-28T02:24:43.380Z,23.19
2022-07-28T02:26:53.673Z,23.14
2022-07-28T02:28:59.699Z,23.17
2022-07-28T02:31:20.202Z,23.11
2022-07-28T02:33:58.133Z,23.14
2022-07-28T02:35:57.528Z,23.10
2022-07-28T02:38:05.338Z,23.07
2022-07-28T02:40:13.847Z,23.03
2022-07-28T02:42:19.888Z,22.98
2022-07-28T02:44:26.706Z,22.91
2022-07-28T02:46:43.194Z,22.85
2022-07-28T02:48:50.056Z,22.87
2022-07-28T02:50:54.874Z,22.85
2022-07-28T02:52:59.921Z,22.84
2022-07-28T02:55:03.442Z,22.83
2022-07-28T02:57:06.860Z,22.80
2022-07-28T02:59:11.553Z,22.75
2022-07-28T03:01:20.650Z,22.72
2022-07-28T03:03:23.277Z,22.71
2022-07-28T03:05:26.306Z,22.67
2022-07-28T03:07:29.822Z,22.61
2022-07-28T03:09:38.027Z,22.60
2022-07-28T03:11:53.243Z,22.55
2022-07-28T03:13:55.229Z,22.54
2022-07-28T03:15:57.145Z,22.56
2022-07-28T03:18:00.483Z,22.55
2022-07-28T03:20:02.356Z,22.54
2022-07-28T03:22:05.336Z,22.52
2022-07-28T03:24:10.669Z,22.52
2022-07-28T03:26:30.716Z,22.41
2022-07-28T03:28:33.914Z,22.45
2022-07-28T03:30:41.906Z,22.45
2022-07-28T03:32:48.330Z,22.46
2022-07-28T03:34:52.512Z,22.45
2022-07-28T03:37:03.010Z,22.41
2022-07-28T03:39:09.411Z,22.41
2022-07-28T03:41:13.297Z,22.41
2022-07-28T03:43:18.981Z,22.41
2022-07-28T03:45:21.573Z,22.37
2022-07-28T03:47:24.260Z,22.37
2022-07-28T03:49:26.150Z,22.45
2022-07-28T03:51:29.627Z,22.51
2022-07-28T03:53:31.483Z,22.55
2022-07-28T03:55:33.313Z,22.51
2022-07-28T03:57:35.689Z,22.54
2022-07-28T03:59:37.629Z,22.54
2022-07-28T04:01:40.405Z,22.56
2022-07-28T04:03:43.673Z,22.58
2022-07-28T04:05:46.916Z,22.63
2022-07-28T04:07:48.780Z,22.64
2022-07-28T04:09:50.863Z,22.66
2022-07-28T04:11:52.687Z,22.68
2022-07-28T04:13:56.289Z,22.64
2022-07-28T04:15:58.738Z,22.66
2022-07-28T04:18:00.950Z,22.70
2022-07-28T04:20:02.795Z,22.69
2022-07-28T04:22:04.611Z,22.71
2022-07-28T04:24:08.926Z,22.74
2022-07-28T04:26:11.190Z,22.82
2022-07-28T04:28:13.020Z,22.83
2022-07-28T04:30:17.542Z,22.87
2022-07-28T04:32:19.481Z,22.89
2022-07-28T04:34:21.324Z,22.93
2022-07-28T04:36:23.098Z,22.98
2022-07-28T04:38:24.898Z,22.99
2022-07-28T04:40:27.991Z,23.11
2022-07-28T04:42:29.722Z,23.17
2022-07-28T04:44:31.505Z,23.18
2022-07-28T04:46:34.817Z,23.20
2022-07-28T04:48:36.732Z,23.29
2022-07-28T04:50:40.993Z,23.34
2022-07-28T04:52:42.791Z,23.44
2022-07-28T04:54:44.595Z,23.52
2022-07-28T04:56:46.623Z,23.64
2022-07-28T04:58:48.393Z,23.71
2022-07-28T05:00:51.174Z,23.83
2022-07-28T05:02:53.795Z,23.90
2022-07-28T05:04:55.761Z,23.97
2022-07-28T05:06:57.553Z,23.93
2022-07-28T05:08:59.306Z,23.99
2022-07-28T05:11:01.574Z,24.02
2022-07-28T05:13:07.437Z,24.10
2022-07-28T05:15:09.725Z,24.23
2022-07-28T05:17:11.619Z,24.31
2022-07-28T05:19:15.375Z,24.39
2022-07-28T05:21:17.094Z,24.48
2022-07-28T05:23:25.140Z,24.59
2022-07-28T05:25:27.054Z,24.76
2022-07-28T05:27:28.850Z,24.88
2022-07-28T05:29:35.127Z,25.01
2022-07-28T05:31:48.966Z,25.17
2022-07-28T05:33:51.402Z,25.31
2022-07-28T05:35:57.524Z,25.38
2022-07-28T05:37:59.395Z,25.53
2022-07-28T05:40:03.710Z,25.62
2022-07-28T05:42:05.726Z,25.75
2022-07-28T05:44:07.495Z,25.87
2022-07-28T05:46:09.413Z,26.01
2022-07-28T05:48:11.622Z,26.08
2022-07-28T05:50:15.239Z,26.24
2022-07-28T05:52:16.951Z,26.38
2022-07-28T05:54:18.712Z,26.48
2022-07-28T05:56:22.076Z,26.53
2022-07-28T05:58:24.168Z,26.64
2022-07-28T06:00:27.248Z,26.76
2022-07-28T06:02:29.052Z,26.90
2022-07-28T06:04:31.593Z,27.04
2022-07-28T06:06:33.560Z,27.15
2022-07-28T06:08:36.325Z,27.32
2022-07-28T06:10:57.135Z,27.46
2022-07-28T06:12:58.952Z,27.63
2022-07-28T06:15:04.199Z,27.76
2022-07-28T06:17:06.109Z,27.91
2022-07-28T06:19:07.935Z,28.03
2022-07-28T06:21:09.712Z,28.06
2022-07-28T06:23:12.047Z,28.16
2022-07-28T06:25:24.261Z,28.23
2022-07-28T06:27:26.116Z,28.36
2022-07-28T06:29:27.927Z,28.43
2022-07-28T06:31:29.838Z,28.54
2022-07-28T06:33:32.129Z,28.61
2022-07-28T06:35:44.966Z,28.70
2022-07-28T06:37:53.880Z,28.78
2022-07-28T06:39:56.900Z,28.90
2022-07-28T06:41:58.757Z,29.00
2022-07-28T06:44:00.817Z,29.13
2022-07-28T06:46:03.624Z,29.26
2022-07-28T06:48:07.967Z,29.26
2022-07-28T06:50:26.373Z,29.30
2022-07-28T06:52:28.970Z,29.35
2022-07-28T06:54:30.700Z,29.43
2022-07-28T06:56:32.567Z,29.53
2022-07-28T06:58:34.466Z,29.60
2022-07-28T07:00:36.403Z,29.72
2022-07-28T07:02:40.144Z,29.80
2022-07-28T07:04:42.633Z,29.85
2022-07-28T07:06:44.730Z,29.96
2022-07-28T07:08:47.883Z,30.04
2022-07-28T07:10:49.986Z,30.06
2022-07-28T07:12:52.253Z,30.11
2022-07-28T07:14:54.206Z,30.17
2022-07-28T07:16:55.982Z,30.30
2022-07-28T07:18:57.902Z,30.36
2022-07-28T07:20:59.778Z,30.44
2022-07-28T07:23:01.903Z,30.43
2022-07-28T07:25:18.216Z,30.52
2022-07-28T07:27:19.968Z,30.67
2022-07-28T07:29:23.022Z,30.74
2022-07-28T07:31:24.841Z,30.82
2022-07-28T07:33:26.667Z,30.89
2022-07-28T07:35:28.582Z,30.93
2022-07-28T07:37:32.557Z,31.05
2022-07-28T07:39:34.474Z,31.20
2022-07-28T07:41:36.290Z,31.38
2022-07-28T07:43:43.372Z,31.50
2022-07-28T07:45:47.721Z,31.60
2022-07-28T07:47:49.568Z,31.75
2022-07-28T07:49:51.914Z,31.87
2022-07-28T07:51:53.753Z,31.97
2022-07-28T07:53:55.482Z,32.08
2022-07-28T07:55:57.898Z,32.22
2022-07-28T07:57:59.680Z,32.29
2022-07-28T08:00:01.769Z,32.43
2022-07-28T08:02:06.422Z,32.56
2022-07-28T08:04:08.484Z,32.66
2022-07-28T08:06:10.869Z,32.73
2022-07-28T08:08:13.760Z,32.78
2022-07-28T08:10:15.613Z,32.84
2022-07-28T08:12:17.512Z,32.94
2022-07-28T08:14:26.601Z,33.03
2022-07-28T08:16:28.607Z,33.07
2022-07-28T08:18:30.466Z,33.14
2022-07-28T08:20:32.916Z,33.18
2022-07-28T08:22:34.652Z,33.22
2022-07-28T08:24:36.687Z,33.19
2022-07-28T08:26:38.595Z,33.18
2022-07-28T08:28:40.340Z,33.15
2022-07-28T08:30:42.504Z,33.12
2022-07-28T08:32:44.275Z,33.06
2022-07-28T08:35:22.654Z,33.00
2022-07-28T08:37:20.276Z,32.93
2022-07-28T08:39:22.880Z,32.91
2022-07-28T08:41:36.814Z,32.92
2022-07-28T08:43:42.823Z,32.96
2022-07-28T08:45:49.631Z,33.00
2022-07-28T08:48:08.196Z,33.02
2022-07-28T08:50:13.733Z,33.04
2022-07-28T08:52:19.830Z,33.03
2022-07-28T08:54:27.154Z,33.03
2022-07-28T08:56:29.129Z,32.97
2022-07-28T08:58:35.838Z,32.98
2022-07-28T09:00:38.093Z,33.05
2022-07-28T09:02:45.854Z,33.15
2022-07-28T09:04:48.310Z,33.25
2022-07-28T09:06:50.112Z,33.35
2022-07-28T09:08:52.309Z,33.41
2022-07-28T09:10:54.518Z,33.49
2022-07-28T09:12:56.361Z,33.49
2022-07-28T09:14:58.164Z,33.50
2022-07-28T09:17:01.891Z,33.54
2022-07-28T09:19:03.772Z,33.56
2022-07-28T09:21:05.552Z,33.61
2022-07-28T09:23:41.912Z,33.64
2022-07-28T09:25:31.581Z,33.60
2022-07-28T09:27:46.733Z,33.59
2022-07-28T09:29:59.012Z,33.60
2022-07-28T09:32:01.176Z,33.70
2022-07-28T09:34:05.257Z,33.78
2022-07-28T09:36:14.706Z,33.91
2022-07-28T09:38:18.875Z,33.98
2022-07-28T09:40:22.510Z,33.85
2022-07-28T09:42:25.141Z,33.79
2022-07-28T09:44:27.957Z,33.76
2022-07-28T09:46:30.692Z,33.71
2022-07-28T09:48:33.402Z,33.73
2022-07-28T09:50:35.658Z,33.75
2022-07-28T09:52:38.616Z,33.69
2022-07-28T09:54:59.595Z,33.67
2022-07-28T09:57:01.622Z,33.74
2022-07-28T09:59:03.955Z,33.72
2022-07-28T10:01:11.596Z,33.66
2022-07-28T10:03:26.006Z,33.47
2022-07-28T10:05:40.583Z,33.37
2022-07-28T10:07:51.413Z,33.24
2022-07-28T10:09:57.673Z,33.26
2022-07-28T10:12:19.560Z,33.21
2022-07-28T10:14:32.612Z,33.26
2022-07-28T10:16:37.037Z,33.26
2022-07-28T10:18:40.637Z,33.25
2022-07-28T10:20:44.990Z,33.17
2022-07-28T10:22:46.982Z,33.22
2022-07-28T10:24:53.015Z,33.22
2022-07-28T10:26:57.201Z,33.16
2022-07-28T10:29:04.038Z,33.14
2022-07-28T10:31:11.801Z,33.10
2022-07-28T10:33:15.797Z,33.15
2022-07-28T10:35:18.086Z,33.09
2022-07-28T10:37:25.813Z,33.08
2022-07-28T10:39:33.056Z,33.03
2022-07-28T10:41:40.570Z,32.95
2022-07-28T10:43:45.512Z,32.92
2022-07-28T10:46:05.120Z,32.92
2022-07-28T10:48:08.554Z,32.88
2022-07-28T10:50:10.679Z,32.82
2022-07-28T10:52:45.866Z,32.87
2022-07-28T10:55:05.341Z,32.86
2022-07-28T10:57:10.951Z,32.87
2022-07-28T10:59:29.547Z,32.80
2022-07-28T11:01:49.228Z,32.83
2022-07-28T11:03:52.118Z,32.91
2022-07-28T11:05:54.449Z,32.96
2022-07-28T11:08:01.284Z,33.03
2022-07-28T11:10:16.943Z,33.04
2022-07-28T11:12:45.410Z,33.15
2022-07-28T11:14:47.437Z,33.30
2022-07-28T11:17:01.625Z,33.08
2022-07-28T11:19:07.913Z,33.21
2022-07-28T11:21:30.968Z,33.19
2022-07-28T11:23:47.646Z,33.23
2022-07-28T11:26:24.747Z,33.20
2022-07-28T11:28:26.644Z,33.26
2022-07-28T11:30:32.225Z,33.29
2022-07-28T11:32:55.554Z,33.19
2022-07-28T11:35:10.178Z,33.12
2022-07-28T11:37:15.081Z,33.20
2022-07-28T11:39:27.760Z,33.14
2022-07-28T11:41:34.704Z,33.18
2022-07-28T11:43:39.507Z,33.27
2022-07-28T11:45:47.290Z,33.33
2022-07-28T11:48:19.082Z,33.26
2022-07-28T11:50:21.101Z,33.34
2022-07-28T11:52:22.973Z,33.43
2022-07-28T11:54:25.392Z,33.48
2022-07-28T11:56:31.856Z,33.46
2022-07-28T11:58:34.198Z,33.41
2022-07-28T12:00:35.995Z,33.43
2022-07-28T12:02:41.001Z,33.41
2022-07-28T12:04:43.223Z,33.43
2022-07-28T12:06:51.562Z,33.44
2022-07-28T12:08:56.762Z,33.43
2022-07-28T12:10:58.819Z,33.44
2022-07-28T12:13:05.545Z,33.39
2022-07-28T12:15:08.192Z,33.45
2022-07-28T12:17:10.659Z,33.46
2022-07-28T12:19:16.701Z,33.52
2022-07-28T12:21:55.587Z,33.46
2022-07-28T12:23:57.455Z,33.50
2022-07-28T12:26:04.666Z,33.50
2022-07-28T12:28:20.194Z,33.51
2022-07-28T12:30:27.365Z,33.47
2022-07-28T12:32:36.402Z,33.48
2022-07-28T12:34:40.594Z,33.51
2022-07-28T12:36:42.807Z,33.48
2022-07-28T12:38:46.020Z,33.43
2022-07-28T12:40:48.191Z,33.40
2022-07-28T12:42:54.135Z,33.43
2022-07-28T12:45:04.762Z,33.39
2022-07-28T12:47:09.130Z,33.42
2022-07-28T12:49:21.642Z,33.40
2022-07-28T12:51:35.409Z,33.42
2022-07-28T12:53:51.192Z,33.47
2022-07-28T12:56:02.287Z,33.49
2022-07-28T12:58:05.092Z,33.52
2022-07-28T13:00:07.551Z,33.43
2022-07-28T13:02:09.555Z,33.44
2022-07-28T13:04:11.855Z,33.38
2022-07-28T13:06:15.706Z,33.41
2022-07-28T13:08:17.618Z,33.43
2022-07-28T13:10:22.517Z,33.45
2022-07-28T13:12:25.397Z,33.46
2022-07-28T13:14:44.608Z,33.42
2022-07-28T13:16:57.617Z,33.41
2022-07-28T13:19:05.716Z,33.48
2022-07-28T13:21:08.660Z,33.51
2022-07-28T13:23:10.356Z,33.51
2022-07-28T13:25:12.259Z,33.53
2022-07-28T13:27:14.279Z,33.57
2022-07-28T13:29:16.141Z,33.56
2022-07-28T13:31:18.138Z,33.55
2022-07-28T13:33:20.598Z,33.55
2022-07-28T13:35:23.214Z,33.56
2022-07-28T13:37:25.344Z,33.52
2022-07-28T13:39:27.618Z,33.57
2022-07-28T13:41:56.664Z,33.65
2022-07-28T13:43:51.320Z,33.63
2022-07-28T13:45:57.092Z,33.67
2022-07-28T13:48:03.553Z,33.66
2022-07-28T13:50:06.288Z,33.65
2022-07-28T13:52:12.886Z,33.71
2022-07-28T13:54:15.876Z,33.74
2022-07-28T13:56:17.956Z,33.82
2022-07-28T13:58:19.745Z,33.81
2022-07-28T14:00:25.259Z,33.82
2022-07-28T14:02:27.609Z,33.78
2022-07-28T14:04:29.503Z,33.80
2022-07-28T14:06:31.397Z,33.82
2022-07-28T14:08:33.281Z,33.82
2022-07-28T14:10:38.598Z,33.83
2022-07-28T14:12:40.535Z,33.82
2022-07-28T14:14:48.525Z,33.83
2022-07-28T14:16:52.143Z,33.77
2022-07-28T14:18:54.213Z,33.73
2022-07-28T14:20:56.074Z,33.77
2022-07-28T14:23:00.621Z,33.82
2022-07-28T14:25:02.500Z,33.84
2022-07-28T14:27:04.387Z,33.91
2022-07-28T14:29:11.498Z,33.93
2022-07-28T14:31:13.626Z,33.92
2022-07-28T14:33:16.513Z,33.92
2022-07-28T14:35:19.505Z,33.95
2022-07-28T14:37:21.376Z,33.99
2022-07-28T14:39:23.156Z,34.01
2022-07-28T14:41:26.080Z,33.96
2022-07-28T14:43:27.867Z,33.93
2022-07-28T14:45:29.925Z,33.96
2022-07-28T14:47:45.284Z,33.94
2022-07-28T14:49:57.951Z,33.96
2022-07-28T14:52:00.395Z,33.92
2022-07-28T14:54:02.662Z,33.92
2022-07-28T14:56:04.736Z,33.82
2022-07-28T14:58:06.574Z,33.73
2022-07-28T15:00:14.050Z,33.68
2022-07-28T15:02:16.338Z,33.69
2022-07-28T15:04:18.936Z,33.67
2022-07-28T15:06:20.902Z,33.68
2022-07-28T15:08:27.967Z,33.69
2022-07-28T15:10:31.358Z,33.70
2022-07-28T15:12:33.107Z,33.68
2022-07-28T15:14:35.279Z,33.68
2022-07-28T15:16:38.408Z,33.65
2022-07-28T15:18:41.958Z,33.63
2022-07-28T15:20:43.799Z,33.60
2022-07-28T15:22:46.098Z,33.59
2022-07-28T15:24:47.894Z,33.55
2022-07-28T15:26:49.817Z,33.53
2022-07-28T15:28:51.659Z,33.50
2022-07-28T15:30:54.619Z,33.48
2022-07-28T15:32:58.002Z,33.49
2022-07-28T15:35:01.909Z,33.43
2022-07-28T15:37:03.706Z,33.39
2022-07-28T15:39:08.990Z,33.39
2022-07-28T15:41:13.056Z,33.42
2022-07-28T15:43:14.862Z,33.40
2022-07-28T15:45:16.820Z,33.34
2022-07-28T15:47:18.607Z,33.29
2022-07-28T15:49:20.465Z,33.21
2022-07-28T15:51:25.770Z,33.24
2022-07-28T15:53:28.295Z,33.23
2022-07-28T15:55:30.079Z,33.22
2022-07-28T15:57:37.920Z,33.21
2022-07-28T15:59:49.414Z,33.20
2022-07-28T16:01:52.385Z,33.19
2022-07-28T16:03:55.146Z,33.18
2022-07-28T16:05:58.911Z,33.17
2022-07-28T16:08:00.871Z,33.15
2022-07-28T16:10:03.207Z,33.11
2022-07-28T16:12:05.742Z,33.09
2022-07-28T16:14:07.593Z,33.07
2022-07-28T16:16:11.469Z,33.09
2022-07-28T16:18:14.481Z,33.09
2022-07-28T16:20:17.781Z,33.06
2022-07-28T16:22:20.969Z,33.08
2022-07-28T16:24:22.840Z,33.09
2022-07-28T16:26:24.655Z,33.05
2022-07-28T16:28:29.136Z,32.96
2022-07-28T16:30:31.052Z,32.97
2022-07-28T16:32:33.012Z,32.98
2022-07-28T16:34:34.927Z,32.98
2022-07-28T16:36:38.201Z,33.00
2022-07-28T16:38:39.946Z,32.95
2022-07-28T16:40:41.901Z,32.97
2022-07-28T16:42:44.091Z,33.01
2022-07-28T16:44:47.503Z,33.00
2022-07-28T16:46:50.093Z,32.97
2022-07-28T16:48:52.149Z,33.00
2022-07-28T16:50:54.065Z,32.95
2022-07-28T16:52:56.684Z,32.97
2022-07-28T16:54:58.584Z,32.98
2022-07-28T16:57:00.802Z,32.97
2022-07-28T16:59:02.950Z,33.00
2022-07-28T17:01:05.430Z,33.01
2022-07-28T17:03:07.387Z,33.06
2022-07-28T17:05:13.824Z,33.00
2022-07-28T17:07:15.707Z,32.97
2022-07-28T17:09:17.562Z,32.95
2022-07-28T17:11:19.372Z,32.96
2022-07-28T17:13:22.511Z,32.92
2022-07-28T17:15:24.797Z,32.94
2022-07-28T17:17:27.028Z,32.93
2022-07-28T17:19:33.117Z,32.91
2022-07-28T17:21:36.037Z,32.90
2022-07-28T17:23:39.170Z,32.89
2022-07-28T17:26:04.920Z,32.86
2022-07-28T17:28:04.439Z,32.83
2022-07-28T17:30:07.680Z,32.81
2022-07-28T17:32:10.260Z,32.80
2022-07-28T17:34:12.366Z,32.77
2022-07-28T17:36:14.817Z,32.76
2022-07-28T17:38:21.490Z,32.73
2022-07-28T17:40:27.514Z,32.69
2022-07-28T17:42:29.770Z,32.66
2022-07-28T17:44:31.475Z,32.57
2022-07-28T17:46:37.904Z,32.43
2022-07-28T17:48:40.436Z,32.36
2022-07-28T17:50:43.431Z,32.32
2022-07-28T17:52:46.730Z,32.32
2022-07-28T17:55:07.023Z,32.27
2022-07-28T17:57:09.541Z,32.27
2022-07-28T17:59:13.022Z,32.26
2022-07-28T18:01:15.410Z,32.27
2022-07-28T18:03:18.364Z,32.27
2022-07-28T18:05:20.392Z,32.23
2022-07-28T18:07:22.284Z,32.19
2022-07-28T18:09:24.062Z,32.20
2022-07-28T18:11:27.765Z,32.15
2022-07-28T18:13:29.901Z,32.13
2022-07-28T18:15:32.298Z,32.08
2022-07-28T18:17:34.129Z,32.07
2022-07-28T18:19:35.945Z,32.01
2022-07-28T18:21:37.800Z,31.97
2022-07-28T18:23:44.988Z,31.94
2022-07-28T18:25:47.416Z,31.87
2022-07-28T18:27:49.365Z,31.84
2022-07-28T18:29:51.182Z,31.82
2022-07-28T18:31:53.372Z,31.77
2022-07-28T18:33:55.495Z,31.76
2022-07-28T18:35:57.608Z,31.72
2022-07-28T18:38:00.428Z,31.67
2022-07-28T18:40:04.118Z,31.62
2022-07-28T18:42:06.289Z,31.58
2022-07-28T18:44:08.084Z,31.56
2022-07-28T18:46:09.876Z,31.53
2022-07-28T18:48:11.878Z,31.48
2022-07-28T18:50:28.103Z,31.44
2022-07-28T18:52:35.156Z,31.39
2022-07-28T18:54:38.138Z,31.35
2022-07-28T18:56:39.890Z,31.31
2022-07-28T18:58:42.389Z,31.29
2022-07-28T19:00:45.051Z,31.22
2022-07-28T19:02:47.488Z,31.20
2022-07-28T19:04:49.297Z,31.19
2022-07-28T19:06:51.309Z,31.13
2022-07-28T19:08:53.117Z,31.10
2022-07-28T19:10:55.517Z,31.07
2022-07-28T19:12:57.694Z,31.03
2022-07-28T19:14:59.895Z,31.02
2022-07-28T19:17:04.003Z,30.96
2022-07-28T19:19:05.802Z,30.95
2022-07-28T19:21:08.983Z,30.89
2022-07-28T19:23:11.069Z,30.89
2022-07-28T19:25:12.901Z,30.84
2022-07-28T19:27:14.982Z,30.79
2022-07-28T19:29:16.786Z,30.77
2022-07-28T19:31:20.404Z,30.74
2022-07-28T19:33:22.230Z,30.69
2022-07-28T19:35:26.386Z,30.67
2022-07-28T19:37:28.331Z,30.63
2022-07-28T19:39:34.120Z,30.63
2022-07-28T19:41:36.005Z,30.56
2022-07-28T19:43:38.240Z,30.55
2022-07-28T19:45:40.310Z,30.55
2022-07-28T19:47:42.698Z,30.54
2022-07-28T19:49:44.610Z,30.53
2022-07-28T19:51:46.385Z,30.53
2022-07-28T19:53:48.576Z,30.50
2022-07-28T19:55:51.375Z,30.48
2022-07-28T19:57:59.096Z,30.49
2022-07-28T20:00:04.679Z,30.47
2022-07-28T20:02:14.334Z,30.45
2022-07-28T20:04:16.678Z,30.45
2022-07-28T20:06:18.700Z,30.37
2022-07-28T20:08:26.962Z,30.30
2022-07-28T20:10:28.885Z,30.25
2022-07-28T20:12:36.190Z,30.21
2022-07-28T20:14:38.729Z,30.17
2022-07-28T20:16:40.573Z,30.20
2022-07-28T20:18:42.608Z,30.20
2022-07-28T20:20:44.328Z,30.21
2022-07-28T20:22:47.671Z,30.21
2022-07-28T20:24:49.801Z,30.22
2022-07-28T20:26:51.751Z,30.18
2022-07-28T20:28:58.515Z,30.18
2022-07-28T20:31:00.504Z,30.18
2022-07-28T20:33:02.340Z,30.16
2022-07-28T20:35:08.713Z,30.17
2022-07-28T20:37:31.346Z,30.12
2022-07-28T20:39:44.515Z,30.12
2022-07-28T20:41:48.717Z,30.09
2022-07-28T20:44:11.392Z,30.07
2022-07-28T20:46:12.475Z,30.07
2022-07-28T20:48:14.491Z,30.06
2022-07-28T20:50:17.728Z,30.06
2022-07-28T20:52:19.447Z,29.98
2022-07-28T20:54:22.320Z,29.89
2022-07-28T20:56:24.179Z,29.83
2022-07-28T20:58:26.642Z,29.77
2022-07-28T21:00:28.879Z,29.68
2022-07-28T21:02:30.882Z,29.72
2022-07-28T21:04:32.779Z,29.77
2022-07-28T21:06:35.170Z,29.77
2022-07-28T21:08:39.721Z,29.65
2022-07-28T21:10:44.257Z,29.58
2022-07-28T21:12:46.087Z,29.52
2022-07-28T21:14:48.581Z,29.50
2022-07-28T21:16:51.304Z,29.51
2022-07-28T21:18:53.197Z,29.58
2022-07-28T21:20:55.223Z,29.64
2022-07-28T21:22:57.019Z,29.67
2022-07-28T21:24:59.246Z,29.67
2022-07-28T21:27:01.009Z,29.69
2022-07-28T21:29:12.642Z,29.60
2022-07-28T21:31:14.651Z,29.58
2022-07-28T21:33:22.272Z,29.56
2022-07-28T21:35:25.513Z,29.50
2022-07-28T21:37:27.341Z,29.44
2022-07-28T21:39:29.369Z,29.39
2022-07-28T21:41:36.874Z,29.24
2022-07-28T21:43:39.255Z,29.24
2022-07-28T21:45:41.101Z,29.24
2022-07-28T21:47:43.049Z,29.30
2022-07-28T21:49:44.805Z,29.34
2022-07-28T21:51:47.019Z,29.33
2022-07-28T21:53:50.591Z,29.36
2022-07-28T21:55:57.108Z,29.35
2022-07-28T21:57:59.205Z,29.40
2022-07-28T22:00:01.647Z,29.42
2022-07-28T22:02:03.941Z,29.43
2022-07-28T22:04:05.708Z,29.45
2022-07-28T22:06:07.956Z,29.44
2022-07-28T22:08:09.787Z,29.42
2022-07-28T22:10:12.149Z,29.43
2022-07-28T22:12:14.595Z,29.43
2022-07-28T22:14:17.032Z,29.42
2022-07-28T22:16:19.416Z,29.41
2022-07-28T22:18:21.461Z,29.37
2022-07-28T22:20:23.414Z,29.35
2022-07-28T22:22:25.419Z,29.25
2022-07-28T22:24:27.194Z,29.23
2022-07-28T22:26:29.414Z,29.23
2022-07-28T22:28:31.281Z,29.21
2022-07-28T22:30:33.542Z,29.21
2022-07-28T22:32:35.420Z,29.22
2022-07-28T22:34:37.457Z,29.22
2022-07-28T22:36:39.525Z,29.21
2022-07-28T22:38:41.385Z,29.16
2022-07-28T22:40:43.227Z,29.13
2022-07-28T22:42:45.710Z,29.12
2022-07-28T22:44:47.535Z,29.11
2022-07-28T22:46:49.622Z,29.02
2022-07-28T22:48:51.567Z,29.04
2022-07-28T22:50:53.403Z,28.94
2022-07-28T22:52:55.168Z,28.86
2022-07-28T22:54:57.417Z,28.84
2022-07-28T22:56:59.606Z,28.71
2022-07-28T22:59:01.368Z,28.69
2022-07-28T23:01:03.949Z,28.70
2022-07-28T23:03:09.980Z,28.76
2022-07-28T23:05:16.327Z,28.79
2022-07-28T23:07:18.156Z,28.80
2022-07-28T23:09:20.163Z,28.76
2022-07-28T23:11:21.944Z,28.78
2022-07-28T23:13:24.131Z,28.84
2022-07-28T23:15:41.134Z,28.81
2022-07-28T23:17:43.511Z,28.83
2022-07-28T23:19:45.277Z,28.82
2022-07-28T23:21:47.179Z,28.81
2022-07-28T23:23:49.496Z,28.82
2022-07-28T23:25:51.390Z,28.81
2022-07-28T23:27:53.240Z,28.80
2022-07-28T23:29:55.117Z,28.76
2022-07-28T23:31:56.908Z,28.75
2022-07-28T23:33:58.874Z,28.69
2022-07-28T23:36:00.626Z,28.53
2022-07-28T23:38:02.891Z,28.47
2022-07-28T23:40:05.154Z,28.36
2022-07-28T23:42:07.259Z,28.24
2022-07-28T23:44:09.330Z,28.29
2022-07-28T23:46:11.311Z,28.27
2022-07-28T23:48:13.167Z,28.27
2022-07-28T23:50:15.093Z,28.29
2022-07-28T23:52:16.804Z,28.29
2022-07-28T23:54:18.990Z,28.32
2022-07-28T23:56:20.838Z,28.29
2022-07-28T23:58:22.657Z,28.23
